Hauptseite
METAR-TAF:

METAR-TAF

Flughäfen :

Lyon / Saint Exupéry, Frankreich

Flughafen Lyon Saint-Exupéry

Breite: 45-44N, Länge: 005-05E, Höhe: 248 m

Beobachtung

Neuester Wetterbericht von vor 21 Minuten, um 05:30 UTC
Wind 9 kt aus Nord/Nordwest
Temperatur 13°C
Luftfeuchtigkeit 72%
Luftdruck 1021 hPa
Sichtweite 10 km oder mehr
Leicht bewölkt in der Höhe von 2300 ft
Durchbrochene Bewölkung in der Höhe von 6000 ft

METAR: LFLL 260530Z 33009KT 9999 FEW023 BKN060 13/08 Q1021 NOSIG

Zeit: 07:51 (05:51 UTC)

Prognose

Neuester Wetterbericht von vor 51 Minuten, um 05:00 UTC
Gültige Prognose vom 26 um 06 UTC bis 27 um 12 UTC
Wind 10 kt aus Nord
Sichtweite 10 km oder mehr
Aufgelockert bewölkt in der Höhe von 3500 ft
Aufgelockert bewölkt in der Höhe von 6000 ft
Übergehend zu
vom 27 um 08 UTC bis 27 um 11 UTC
Wind 10 kt aus Süd/Südwest

TAF: LFLL 260500Z 2606/2712 35010KT 9999 SCT035 SCT060 BECMG 2708/2711 20010KT

Wetterbeobachtungen und Prognosen von mehr als 4000 Flughäfen (METAR und TAF Bericht).

Die verfügbaren Stationen werden durch gelbe und rote Markierungen auf der Karte dargestellt.

Führen Sie die Maus auf sie, um den Namen der Station zu sehen.

Darauf klicken, um die Beobachtung von Wetterbeobachtungen und Prognosen zu sehen.

Um die Karte zu ändern : klicken Sie auf den grünen Tasten mit einem schwarzen Kreuz Zum Vergrößern, auf den grünen Button mit einem Gedankenstrich zu verkleinern, oder auf die grünen Pfeile für benachbarte Karten.


METAR-TAF: